Littleton, Maine
Current Conditions -  °F | °C
As of 4:53 PM on Tuesday 21 Oct 2014 (Local Time) from KHUL Reporting Station
Overcast Overcast  
Wind Chill: 46°   Ceiling: 6500
Heat Index: 46°   Visibility: 10mi
Dew Point: 34°   Wind: 3mph
Humidity: 63%   Direction: 60°ENE
Pressure: 30.15"   Gusts: NA
Location:  46.1163°N, 67.9329°W
Report Text: KHUL 212053Z AUTO 06003KT 10SM FEW050 BKN065 OVC080 08/01 A3015 RMK AO2 SLP217 60000 T00780011 53009
Loading
Personal Weather Stations






























Interactive Weather Map
Tropical Storm Tracking
New forecast layout! Learn more

10-Day Weather Forecast

Advertisements
Track Severe Weather on mobile